»·PEaware :: N4A KGPI-KGEG

N4A :: KGPI-KGEG

FLIGHT INFORMATION

Flight Status: Arrived
Operator: Privately registered:
United States
More flights under this callsign
Pilot: Alec D. (17934)
Aircraft: CESSNA 510 CITATION MUSTANG
(C510)
More flights by this aircraft type
Origin: KGPI Glacier Park Intl
United States
Destination: KGEG Spokane Intl
United States
More flights between these airports :: More routes between these airports
Route: KILLY1 EYESE V448 EPENE
File this flight plan on PilotEdge
Remarks:
Altitude:
(Current/Filed)
16,000ft
Speed:
(Current/Filed)
310kts
Departed: 10-May-18 07:32 AM
Arrived: 10-May-18 08:09 AM
Distance/Time
Traveled:
138nm/0:37
Distance/Time
To Go:
Arrived

Flight Plot

Page will automatically refresh every two minutes.

Flight plan parsing failed; only flown route is shown


Map Options




Map Legend


Flown Route
Filed Route
Departure Airport
Arrival Airport
Navaid (VOR, NDB)
Fix

Horizontal Profiles

Position Reports

Time Latitude Longitude Heading Altitude Ground
Speed
10-May-18 07:09 48.309586 -114.250974 143 2979ft 0kts
10-May-18 07:10 48.309586 -114.250974 143 2979ft 0kts
10-May-18 07:11 48.309586 -114.250974 143 2979ft 0kts
10-May-18 07:12 48.309586 -114.250974 143 2979ft 0kts
10-May-18 07:13 48.309586 -114.250974 143 2979ft 0kts
10-May-18 07:14 48.309586 -114.250974 143 2979ft 0kts
10-May-18 07:15 48.309586 -114.250974 143 2979ft 0kts
10-May-18 07:16 48.309586 -114.250974 143 2979ft 0kts
10-May-18 07:17 48.309586 -114.250974 143 2979ft 0kts
10-May-18 07:18 48.309586 -114.250974 143 2979ft 0kts
10-May-18 07:19 48.309586 -114.250974 143 2979ft 0kts
10-May-18 07:20 48.309586 -114.250974 143 2979ft 0kts
10-May-18 07:21 48.309586 -114.250974 143 2979ft 0kts
10-May-18 07:22 48.309586 -114.250974 143 2979ft 0kts
10-May-18 07:23 48.309586 -114.250974 143 2979ft 0kts
10-May-18 07:24 48.309586 -114.250974 143 2979ft 0kts
10-May-18 07:25 48.309586 -114.250974 143 2979ft 0kts
10-May-18 07:26 48.309586 -114.250974 143 2979ft 0kts
10-May-18 07:27 48.309586 -114.250974 143 2979ft 0kts
10-May-18 07:28 48.310419 -114.251609 325 2979ft 11kts
10-May-18 07:29 48.312717 -114.251528 29 2979ft 10kts
10-May-18 07:30 48.316226 -114.247857 34 2979ft 13kts
10-May-18 07:31 48.318473 -114.245774 318 2979ft 9kts
10-May-18 07:32 48.311066 -114.254855 214 2988ft 117kts
10-May-18 07:33 48.289400 -114.290215 254 4334ft 177kts
10-May-18 07:34 48.267315 -114.363670 244 6969ft 212kts
10-May-18 07:35 48.233868 -114.440520 228 9612ft 233kts
10-May-18 07:36 48.183658 -114.506136 227 12225ft 235kts
10-May-18 07:37 48.146604 -114.579883 249 14746ft 221kts
10-May-18 07:38 48.128094 -114.672609 255 16004ft 259kts
10-May-18 07:39 48.108933 -114.780986 255 16014ft 270kts
10-May-18 07:40 48.089666 -114.889700 255 16021ft 271kts
10-May-18 07:41 48.070172 -114.998941 255 16027ft 270kts
10-May-18 07:42 48.050708 -115.107268 255 16035ft 270kts
10-May-18 07:43 48.031064 -115.216080 255 16038ft 270kts
10-May-18 07:44 48.011435 -115.324160 255 16045ft 269kts
10-May-18 07:45 47.991682 -115.431984 255 16049ft 269kts
10-May-18 07:46 47.971711 -115.540065 255 16051ft 269kts
10-May-18 07:47 47.951761 -115.647814 254 16051ft 269kts
10-May-18 07:48 47.931720 -115.755279 254 16051ft 269kts
10-May-18 07:49 47.911640 -115.863084 254 16050ft 269kts
10-May-18 07:50 47.891460 -115.970636 254 16049ft 270kts
10-May-18 07:51 47.871110 -116.078912 252 16031ft 273kts
10-May-18 07:52 47.850373 -116.187116 252 16033ft 272kts
10-May-18 07:53 47.829711 -116.294777 251 14959ft 267kts
10-May-18 07:54 47.809350 -116.400285 252 13156ft 261kts
10-May-18 07:55 47.789906 -116.500711 252 12047ft 248kts
10-May-18 07:56 47.770105 -116.602187 251 12005ft 260kts
10-May-18 07:57 47.749964 -116.705085 251 12004ft 254kts
10-May-18 07:58 47.730369 -116.804768 251 12001ft 249kts
10-May-18 07:59 47.711096 -116.902896 251 12003ft 247kts
10-May-18 08:00 47.711807 -117.006393 274 10760ft 251kts
10-May-18 08:01 47.719493 -117.105434 274 8960ft 230kts
10-May-18 08:02 47.725843 -117.194805 274 7151ft 206kts
10-May-18 08:03 47.732180 -117.276067 274 5821ft 186kts
10-May-18 08:04 47.731167 -117.349890 255 4112ft 175kts
10-May-18 08:05 47.706809 -117.404110 223 4055ft 144kts
10-May-18 08:06 47.680875 -117.443076 228 3895ft 121kts
10-May-18 08:07 47.660560 -117.474206 226 3188ft 88kts
10-May-18 08:08 47.643247 -117.500154 224 2743ft 89kts
10-May-18 08:09 47.627108 -117.524434 225 2374ft 37kts
10-May-18 08:10 47.624680 -117.526241 134 2374ft 0kts
10-May-18 08:11 47.624646 -117.526190 133 2374ft 0kts
10-May-18 08:12 47.622980 -117.527141 225 2374ft 16kts
10-May-18 08:13 47.621005 -117.529145 111 2374ft 2kts
10-May-18 08:14 47.620941 -117.527425 100 2374ft 6kts
10-May-18 08:15 47.620186 -117.528619 268 2374ft 3kts
10-May-18 08:16 47.620186 -117.528642 268 2374ft 0kts
10-May-18 08:17 47.620186 -117.528642 268 2374ft 0kts
10-May-18 08:18 47.620186 -117.528642 268 2374ft 0kts
10-May-18 08:19 47.620186 -117.528642 268 2374ft 0kts
10-May-18 08:20 47.620186 -117.528642 268 2374ft 0kts
10-May-18 08:21 47.620186 -117.528642 268 2374ft 0kts
10-May-18 08:22 47.620186 -117.528642 268 2374ft 0kts
10-May-18 08:23 47.620186 -117.528642 268 2374ft 0kts

Navigation Log

Ident Type
Flight plan parsing failed, navigation log unavailable